Time;durP1;ratioP1;P1;durP2;ratioP2;P2;SDS_P1;SDS_P2;PMS_P1;PMS_P2;Temp;Humidity;BMP_temperature;BMP_pressure;BME280_temperature;BME280_humidity;BME280_pressure;Samples;Min_cycle;Max_cycle;Signal;HPM_P1;HPM_P2
2022/09/01 00:02:19;;;;;;;3.08;2.40;;;;;;;25.26;41.82;102419.50;4998571;28;20501;-62
2022/09/01 00:04:46;;;;;;;3.70;2.60;;;;;;;25.25;41.84;102422.34;4995222;28;20076;-63
2022/09/01 00:07:12;;;;;;;3.20;2.35;;;;;;;25.20;42.25;102420.22;4996398;28;20050;-63
2022/09/01 00:09:39;;;;;;;3.05;2.20;;;;;;;25.19;42.29;102418.56;4999455;28;20522;-62
2022/09/01 00:12:07;;;;;;;2.90;2.30;;;;;;;25.20;42.22;102424.72;4997066;28;20136;-62
2022/09/01 00:14:35;;;;;;;3.72;2.40;;;;;;;25.18;41.91;102418.72;4997779;28;20419;-63
2022/09/01 00:17:04;;;;;;;2.33;2.13;;;;;;;25.16;41.80;102418.91;4996079;28;20045;-62
2022/09/01 00:19:32;;;;;;;3.00;2.40;;;;;;;25.22;41.86;102423.53;4996807;28;20039;-63
2022/09/01 00:21:58;;;;;;;3.40;2.30;;;;;;;25.21;42.17;102424.53;4981629;28;20058;-63
2022/09/01 00:24:24;;;;;;;2.88;2.28;;;;;;;25.17;41.97;102420.56;4999845;28;20034;-62
2022/09/01 00:26:50;;;;;;;2.40;2.17;;;;;;;25.17;42.21;102422.41;4964877;28;20041;-62
2022/09/01 00:29:16;;;;;;;2.95;2.17;;;;;;;25.16;42.16;102432.25;4995493;28;20038;-62
2022/09/01 00:31:43;;;;;;;2.33;2.10;;;;;;;25.16;42.01;102424.25;4997151;28;20100;-62
2022/09/01 00:34:09;;;;;;;3.13;2.10;;;;;;;25.16;42.15;102424.25;4980089;28;20137;-62
2022/09/01 00:36:34;;;;;;;4.20;2.15;;;;;;;25.14;42.27;102426.25;4994655;28;20050;-62
2022/09/01 00:39:00;;;;;;;2.75;2.38;;;;;;;25.14;42.31;102425.44;4993538;28;20060;-62
2022/09/01 00:41:30;;;;;;;3.03;2.33;;;;;;;25.13;42.03;102426.41;4993400;28;20097;-62
2022/09/01 00:44:04;;;;;;;2.75;2.20;;;;;;;25.11;41.88;102426.59;4995209;28;20554;-62
2022/09/01 00:46:34;;;;;;;3.03;2.20;;;;;;;25.14;41.99;102425.44;4994706;28;20070;-62
2022/09/01 00:49:04;;;;;;;2.78;2.13;;;;;;;25.12;42.07;102425.56;4993718;28;20033;-63
2022/09/01 00:51:32;;;;;;;2.35;1.98;;;;;;;25.09;42.09;102420.59;4997951;28;20372;-63
2022/09/01 00:54:00;;;;;;;2.83;2.20;;;;;;;25.08;42.05;102420.78;4995157;28;20153;-64
2022/09/01 00:56:26;;;;;;;2.47;2.03;;;;;;;25.13;42.26;102421.06;4973841;28;20611;-62
2022/09/01 00:58:53;;;;;;;2.13;1.92;;;;;;;25.11;42.13;102421.25;4996745;28;20042;-62
2022/09/01 01:01:19;;;;;;;3.10;1.90;;;;;;;25.12;41.88;102416.75;4992401;28;20052;-62
2022/09/01 01:03:45;;;;;;;3.15;2.10;;;;;;;25.12;41.92;102416.75;4994257;28;20041;-63
2022/09/01 01:06:14;;;;;;;2.50;2.30;;;;;;;25.09;41.76;102415.28;4994712;28;20050;-63
2022/09/01 01:08:57;;;;;;;2.58;2.00;;;;;;;25.11;42.13;102421.25;4998169;28;20045;-62
2022/09/01 01:11:26;;;;;;;3.00;2.20;;;;;;;25.06;42.09;102412.13;4994704;28;20041;-63
2022/09/01 01:14:11;;;;;;;2.65;2.22;;;;;;;25.03;42.12;102413.31;4995695;28;20049;-63
2022/09/01 01:16:43;;;;;;;2.60;2.17;;;;;;;25.09;41.94;102406.44;4994262;28;20057;-62
2022/09/01 01:25:27;;;;;;;2.90;2.05;;;;;;;25.01;42.19;102402.00;4994955;28;20041;-62
2022/09/01 01:28:09;;;;;;;1.83;1.67;;;;;;;25.06;41.85;102398.81;4980565;28;21822;-63
2022/09/01 01:30:38;;;;;;;2.92;1.83;;;;;;;25.04;41.98;102398.16;4979999;28;21794;-62
2022/09/01 01:33:05;;;;;;;2.60;1.80;;;;;;;25.00;42.05;102398.53;4979404;28;20072;-62
2022/09/01 01:35:32;;;;;;;3.25;1.92;;;;;;;24.98;42.10;102399.69;4979786;28;20399;-63
2022/09/01 01:38:00;;;;;;;2.05;1.83;;;;;;;25.01;42.06;102396.69;4974481;28;20042;-63
2022/09/01 01:40:28;;;;;;;2.00;1.80;;;;;;;25.00;42.02;102401.19;4994724;28;20057;-62
2022/09/01 01:42:56;;;;;;;2.03;1.80;;;;;;;25.00;42.34;102398.53;4976038;28;20080;-62
2022/09/01 01:45:24;;;;;;;2.53;1.80;;;;;;;24.99;42.06;102396.84;4981415;28;20129;-63
2022/09/01 01:47:55;;;;;;;2.28;1.67;;;;;;;24.97;41.84;102409.50;4994562;28;20045;-63
2022/09/01 01:50:26;;;;;;;2.15;1.90;;;;;;;24.99;42.19;102407.53;4982073;28;20034;-62
2022/09/01 01:52:53;;;;;;;2.13;1.80;;;;;;;24.96;42.28;102399.03;4994069;28;20045;-63
2022/09/01 01:55:26;;;;;;;2.17;1.83;;;;;;;25.02;41.80;102405.50;4961566;28;20034;-62
2022/09/01 01:57:52;;;;;;;1.77;1.60;;;;;;;24.99;41.97;102404.00;4978612;28;20150;-62
2022/09/01 02:00:21;;;;;;;3.05;1.83;;;;;;;24.96;41.93;102412.34;4976889;28;20065;-62
2022/09/01 02:02:52;;;;;;;2.80;1.90;;;;;;;24.96;42.11;102407.84;4996016;28;20120;-62
2022/09/01 02:05:23;;;;;;;2.30;1.80;;;;;;;24.97;41.92;102406.84;4994528;28;20069;-63
2022/09/01 02:07:55;;;;;;;1.70;1.60;;;;;;;24.97;41.79;102411.34;4980230;28;20709;-62
2022/09/01 02:10:26;;;;;;;1.83;1.63;;;;;;;24.93;42.14;102412.66;4996445;28;20041;-62
2022/09/01 02:12:52;;;;;;;1.60;1.50;;;;;;;24.91;42.11;102412.84;4997214;28;20746;-63
2022/09/01 02:15:18;;;;;;;1.60;1.42;;;;;;;24.94;42.32;102403.66;4996666;28;21405;-62
2022/09/01 02:17:44;;;;;;;3.15;2.13;;;;;;;24.93;42.04;102402.84;5001012;28;20033;-63
2022/09/01 02:20:10;;;;;;;1.60;1.50;;;;;;;24.94;42.08;102403.66;4995366;28;20088;-62
2022/09/01 02:22:38;;;;;;;1.90;1.70;;;;;;;24.94;42.31;102401.00;5000154;28;20157;-62
2022/09/01 02:25:04;;;;;;;2.33;1.73;;;;;;;24.91;42.01;102407.53;4996254;28;20065;-63
2022/09/01 02:27:32;;;;;;;1.63;1.48;;;;;;;24.91;42.23;102407.53;4966053;28;20042;-63
2022/09/01 02:29:59;;;;;;;1.60;1.50;;;;;;;24.91;42.41;102406.69;4976959;28;20034;-62
2022/09/01 02:32:24;;;;;;;1.55;1.35;;;;;;;24.91;41.96;102406.69;4999137;28;20037;-63
2022/09/01 02:34:52;;;;;;;1.60;1.33;;;;;;;24.87;42.17;102400.88;4979234;28;20539;-63
2022/09/01 02:37:24;;;;;;;1.73;1.60;;;;;;;24.89;42.24;102401.53;4983410;28;20030;-63
2022/09/01 02:39:52;;;;;;;1.98;1.80;;;;;;;24.87;42.12;102403.56;4983783;28;20033;-62
2022/09/01 02:42:26;;;;;;;1.85;1.58;;;;;;;24.85;42.42;102402.91;4997080;28;20046;-62
2022/09/01 02:44:56;;;;;;;2.47;1.80;;;;;;;24.88;42.29;102401.72;4981018;28;21871;-63
2022/09/01 02:47:22;;;;;;;1.50;1.40;;;;;;;24.90;42.06;102405.03;4980657;28;20050;-62
2022/09/01 02:49:51;;;;;;;1.98;1.48;;;;;;;24.85;42.42;102407.41;4983750;28;20693;-63
2022/09/01 02:52:19;;;;;;;1.73;1.48;;;;;;;24.84;42.31;102408.41;4996178;28;20593;-62
2022/09/01 02:54:48;;;;;;;1.50;1.40;;;;;;;24.82;42.29;102395.25;4981256;28;20141;-62
2022/09/01 02:57:14;;;;;;;2.08;1.50;;;;;;;24.83;42.17;102399.59;4977725;28;20026;-62
2022/09/01 02:59:41;;;;;;;1.50;1.40;;;;;;;24.84;42.04;102403.09;4973804;28;20290;-62
2022/09/01 03:02:08;;;;;;;1.85;1.55;;;;;;;24.85;42.22;102397.56;4995333;28;20034;-63
2022/09/01 03:04:35;;;;;;;1.83;1.65;;;;;;;24.84;42.28;102392.44;4982934;28;20034;-62
2022/09/01 03:07:04;;;;;;;2.00;1.50;;;;;;;24.82;42.38;102397.94;4998723;28;20057;-62
2022/09/01 03:09:31;;;;;;;1.50;1.40;;;;;;;24.80;42.17;102394.63;4991774;28;20046;-63
2022/09/01 03:11:58;;;;;;;1.60;1.50;;;;;;;24.81;42.22;102408.75;4996022;28;20029;-62
2022/09/01 03:14:24;;;;;;;2.20;1.50;;;;;;;24.81;42.42;102404.25;4997433;28;20100;-63
2022/09/01 03:16:50;;;;;;;1.80;1.65;;;;;;;24.82;42.30;102403.25;4996878;28;20140;-62
2022/09/01 03:19:17;;;;;;;1.88;1.60;;;;;;;24.84;42.40;102408.41;4990117;28;20045;-62
2022/09/01 03:21:44;;;;;;;1.60;1.50;;;;;;;24.80;42.29;102402.59;4980654;28;20046;-62
2022/09/01 03:24:15;;;;;;;3.40;1.80;;;;;;;24.80;42.19;102401.78;4977261;28;20042;-62
2022/09/01 03:26:42;;;;;;;1.55;1.45;;;;;;;24.79;42.12;102405.44;4996353;28;20491;-62
2022/09/01 03:29:08;;;;;;;1.80;1.30;;;;;;;24.79;42.16;102400.13;4999096;28;20075;-63
2022/09/01 03:31:36;;;;;;;1.45;1.35;;;;;;;24.76;42.18;102395.13;4977521;28;20061;-62
2022/09/01 03:34:04;;;;;;;1.75;1.55;;;;;;;24.80;42.32;102404.44;4980722;28;20058;-62
2022/09/01 03:36:34;;;;;;;1.65;1.50;;;;;;;24.78;42.36;102399.28;4976083;28;20472;-62
2022/09/01 03:39:00;;;;;;;2.00;1.55;;;;;;;24.76;42.48;102395.13;4976112;28;20046;-62
2022/09/01 03:41:29;;;;;;;1.25;1.10;;;;;;;24.75;42.35;102386.28;4975886;28;20034;-62
2022/09/01 03:43:57;;;;;;;1.70;1.60;;;;;;;24.74;42.05;102386.47;4997057;28;20553;-63
2022/09/01 03:46:26;;;;;;;1.50;1.40;;;;;;;24.77;42.33;102392.28;4979005;28;20041;-62
2022/09/01 03:48:57;;;;;;;2.67;1.30;;;;;;;24.75;42.40;102390.78;4992344;28;20053;-62
2022/09/01 03:51:24;;;;;;;1.60;1.50;;;;;;;24.76;41.81;102385.28;4979446;28;20073;-63
2022/09/01 03:53:56;;;;;;;1.42;1.33;;;;;;;24.74;42.31;102387.31;4980065;28;20099;-62
2022/09/01 03:56:26;;;;;;;1.75;1.50;;;;;;;24.73;42.19;102392.81;4981931;28;20065;-62
2022/09/01 03:58:55;;;;;;;1.83;1.50;;;;;;;24.69;42.16;102390.50;4996385;28;20026;-62
2022/09/01 04:01:21;;;;;;;2.00;1.15;;;;;;;24.71;42.06;102382.34;4992240;28;20297;-62
2022/09/01 04:03:47;;;;;;;1.70;1.50;;;;;;;24.74;42.28;102395.28;4974688;28;20087;-62
2022/09/01 04:06:19;;;;;;;2.00;1.53;;;;;;;24.73;42.23;102385.66;4978669;28;20052;-62
2022/09/01 04:08:45;;;;;;;1.93;1.50;;;;;;;24.73;42.06;102385.66;4981940;28;20548;-62
2022/09/01 04:11:17;;;;;;;1.25;1.15;;;;;;;24.69;42.44;102385.16;4996636;28;20041;-62
2022/09/01 04:13:46;;;;;;;2.17;1.48;;;;;;;24.69;42.35;102379.00;4998244;28;20096;-66
2022/09/01 04:19:30;;;;;;;1.42;1.33;;;;;;;24.67;42.57;102373.88;4996110;28;20034;-63
2022/09/01 04:21:58;;;;;;;2.47;1.65;;;;;;;24.73;42.27;102385.66;4976151;28;20954;-62
2022/09/01 04:24:30;;;;;;;1.60;1.50;;;;;;;24.68;42.30;102375.53;4979051;28;20057;-62
2022/09/01 04:27:00;;;;;;;2.13;1.27;;;;;;;24.68;42.39;102380.03;4979703;28;20125;-62
2022/09/01 04:29:27;;;;;;;2.78;1.33;;;;;;;24.73;42.11;102379.50;4981580;28;20048;-62
2022/09/01 04:32:00;;;;;;;1.58;1.42;;;;;;;24.70;42.22;102386.00;4986573;28;20048;-63
2022/09/01 04:34:27;;;;;;;1.50;1.35;;;;;;;24.65;42.21;102380.38;4981204;28;20350;-62
2022/09/01 04:36:54;;;;;;;2.70;1.50;;;;;;;24.67;42.58;102391.69;4995404;28;20610;-62
2022/09/01 04:39:21;;;;;;;1.40;1.30;;;;;;;24.62;42.57;102380.72;4979389;28;20038;-62
2022/09/01 04:41:48;;;;;;;1.73;1.40;;;;;;;24.64;42.37;102387.53;4977968;28;20029;-63
2022/09/01 04:44:15;;;;;;;1.55;1.20;;;;;;;24.60;42.59;102386.22;4995914;28;20037;-62
2022/09/01 04:46:45;;;;;;;1.60;1.40;;;;;;;24.61;42.36;102382.56;4995332;28;20046;-62
2022/09/01 04:49:14;;;;;;;;;;;;;;;24.64;42.31;102384.03;4981564;28;20049;-62
2022/09/01 04:51:43;;;;;;;1.63;1.45;;;;;;;24.65;42.37;102383.03;4995911;28;20373;-62
2022/09/01 04:54:13;;;;;;;1.60;1.25;;;;;;;24.60;42.44;102380.91;4986028;28;20121;-62
2022/09/01 04:56:46;;;;;;;2.25;1.40;;;;;;;24.62;42.25;102381.56;4984105;28;20069;-63
2022/09/01 04:59:15;;;;;;;1.30;1.20;;;;;;;24.63;42.45;102380.56;4995132;28;20053;-62
2022/09/01 05:01:45;;;;;;;1.73;1.23;;;;;;;24.66;42.17;102385.53;4979826;28;20036;-62
2022/09/01 05:04:18;;;;;;;1.58;1.27;;;;;;;24.62;42.33;102383.38;4978166;28;20180;-62
2022/09/01 05:06:52;;;;;;;1.63;1.50;;;;;;;24.62;42.29;102386.06;4994138;28;20060;-62
2022/09/01 05:09:18;;;;;;;2.60;1.40;;;;;;;24.61;42.22;102387.88;4977811;28;20625;-62
2022/09/01 05:12:09;;;;;;;1.40;1.30;;;;;;;24.58;42.23;102384.72;4983443;28;20596;-62
2022/09/01 05:14:42;;;;;;;1.42;1.33;;;;;;;24.62;42.28;102383.38;4979382;28;20514;-62
2022/09/01 05:17:10;;;;;;;2.05;1.63;;;;;;;24.58;42.24;102380.22;4994347;28;20112;-62
2022/09/01 05:19:38;;;;;;;1.60;1.50;;;;;;;24.62;42.51;102386.06;4977457;28;20049;-62
2022/09/01 05:22:07;;;;;;;1.83;1.30;;;;;;;24.59;42.40;102384.53;4993371;28;20536;-62
2022/09/01 05:24:34;;;;;;;1.43;1.33;;;;;;;24.57;42.39;102386.56;4973818;28;20034;-62
2022/09/01 05:27:03;;;;;;;;;;;;;;;24.61;42.36;102385.22;4990778;28;20477;-62
2022/09/01 05:29:29;;;;;;;1.50;1.40;;;;;;;24.62;42.42;102381.56;4996489;28;20979;-62
2022/09/01 05:31:57;;;;;;;1.33;1.23;;;;;;;24.61;42.26;102387.06;4981292;28;20481;-62
2022/09/01 05:34:28;;;;;;;1.50;1.38;;;;;;;24.58;42.08;102388.22;4997240;28;20092;-65
2022/09/01 05:36:58;;;;;;;2.72;1.58;;;;;;;24.57;42.37;102386.56;4994583;28;20391;-62
2022/09/01 05:39:25;;;;;;;1.73;1.10;;;;;;;24.58;42.14;102382.88;4979108;28;20088;-62
2022/09/01 05:41:52;;;;;;;1.45;1.30;;;;;;;24.60;42.15;102383.56;4978168;28;20037;-62
2022/09/01 05:44:21;;;;;;;1.80;1.52;;;;;;;24.57;42.30;102383.88;4980680;28;20639;-62
2022/09/01 05:46:49;;;;;;;1.65;1.45;;;;;;;24.57;42.21;102377.72;4994185;28;20410;-62
2022/09/01 05:49:17;;;;;;;1.60;1.50;;;;;;;24.61;42.37;102387.06;4977665;28;20042;-62
2022/09/01 05:51:51;;;;;;;1.65;1.33;;;;;;;24.59;42.38;102386.38;4991891;28;20030;-62
2022/09/01 05:54:24;;;;;;;1.52;1.30;;;;;;;24.59;42.33;102386.38;4991133;28;20488;-62
2022/09/01 05:56:52;;;;;;;1.27;1.17;;;;;;;24.60;42.33;102388.06;4975255;28;20467;-62
2022/09/01 05:59:25;;;;;;;2.53;1.50;;;;;;;24.57;42.23;102393.72;4994712;28;20476;-62
2022/09/01 06:01:53;;;;;;;1.38;1.27;;;;;;;24.57;42.19;102397.22;4959792;28;20140;-62
2022/09/01 06:04:19;;;;;;;1.70;1.60;;;;;;;24.54;42.52;102389.56;4977350;28;20511;-62
2022/09/01 06:06:48;;;;;;;2.83;1.58;;;;;;;24.58;42.04;102396.19;4977717;28;20042;-62
2022/09/01 06:09:17;;;;;;;;;;;;;;;24.53;42.24;102387.91;4981911;28;20093;-62
2022/09/01 06:11:45;;;;;;;2.43;1.70;;;;;;;24.48;42.34;102392.09;4998563;28;20011;-61
2022/09/01 06:14:16;;;;;;;6.93;1.92;;;;;;;24.44;42.10;102396.94;4992464;28;20065;-61
2022/09/01 06:16:46;;;;;;;1.65;1.33;;;;;;;24.39;42.08;102391.28;4976381;28;20396;-60
2022/09/01 06:19:12;;;;;;;2.05;1.65;;;;;;;24.39;42.16;102392.13;4976100;28;20725;-60
2022/09/01 06:21:41;;;;;;;1.75;1.45;;;;;;;24.36;42.00;102397.78;4980266;28;20160;-60
2022/09/01 06:24:07;;;;;;;2.72;1.50;;;;;;;24.36;41.87;102394.31;4999066;28;20077;-60
2022/09/01 06:26:35;;;;;;;3.65;2.22;;;;;;;24.32;41.62;102387.66;4980778;28;20369;-60
2022/09/01 06:29:14;;;;;;;3.15;1.60;;;;;;;24.31;41.50;102394.00;4992691;28;20032;-60
2022/09/01 06:31:44;;;;;;;1.85;1.60;;;;;;;24.30;41.61;102395.84;4979244;28;20038;-60
2022/09/01 06:34:16;;;;;;;2.17;1.65;;;;;;;24.28;41.82;102402.31;4991356;28;20484;-60
2022/09/01 06:36:45;;;;;;;1.70;1.55;;;;;;;24.29;41.61;102396.84;4979629;28;20473;-60
2022/09/01 06:39:21;;;;;;;2.60;1.70;;;;;;;24.26;41.80;102404.31;4978148;28;20045;-60
2022/09/01 06:41:52;;;;;;;2.35;1.88;;;;;;;24.25;41.97;102407.97;4977189;28;20029;-60
2022/09/01 06:44:22;;;;;;;1.55;1.40;;;;;;;24.28;41.87;102403.13;4978919;28;20223;-60
2022/09/01 06:46:56;;;;;;;7.30;2.05;;;;;;;24.28;41.57;102404.97;4977666;28;20396;-60
2022/09/01 06:49:31;;;;;;;2.25;1.40;;;;;;;24.27;41.99;102414.78;4994238;28;20038;-61
2022/09/01 06:51:59;;;;;;;4.30;1.70;;;;;;;24.28;41.82;102416.44;4978165;28;20026;-60
2022/09/01 06:54:28;;;;;;;2.97;1.65;;;;;;;24.25;41.96;102416.78;4996314;28;20045;-60
2022/09/01 06:56:54;;;;;;;3.20;1.85;;;;;;;24.25;42.10;102416.78;4972215;28;20038;-61
2022/09/01 06:59:22;;;;;;;2.78;1.77;;;;;;;24.28;42.02;102420.94;4982156;28;20042;-60
2022/09/01 07:01:51;;;;;;;3.88;1.95;;;;;;;24.27;42.32;102419.28;4965843;28;20460;-61
2022/09/01 07:04:21;;;;;;;2.08;1.70;;;;;;;24.25;42.22;102423.94;4983421;28;20487;-60
2022/09/01 07:06:52;;;;;;;4.90;1.58;;;;;;;24.25;42.26;102422.13;4994895;28;20092;-62
2022/09/01 07:09:39;;;;;;;2.03;1.67;;;;;;;24.24;42.47;102428.44;4980196;28;22201;-61
2022/09/01 07:12:30;;;;;;;3.60;1.70;;;;;;;24.26;42.19;102425.59;4994470;28;20053;-61
2022/09/01 07:14:57;;;;;;;2.90;1.70;;;;;;;24.26;42.42;102430.94;4982755;28;20088;-61
2022/09/01 07:17:24;;;;;;;4.88;1.85;;;;;;;24.25;42.55;102430.09;5001648;28;20040;-62
2022/09/01 07:19:50;;;;;;;2.15;1.50;;;;;;;24.40;42.24;102432.88;4981030;28;20046;-63
2022/09/01 07:22:16;;;;;;;5.05;2.05;;;;;;;24.39;42.19;102436.56;4999223;28;20451;-62
2022/09/01 07:24:46;;;;;;;;;;;;;;;24.29;42.38;102431.44;4984929;28;20045;-61
2022/09/01 07:27:50;;;;;;;2.97;1.80;;;;;;;24.40;42.33;102433.72;4980120;28;19929;-60
2022/09/01 07:30:21;;;;;;;5.32;1.98;;;;;;;24.43;42.30;102429.09;4981695;28;20455;-60
2022/09/01 07:32:49;;;;;;;1.90;1.48;;;;;;;24.44;42.27;102431.56;4986464;28;20030;-61
2022/09/01 07:35:19;;;;;;;4.15;1.83;;;;;;;24.43;42.26;102432.56;4985284;28;20318;-61
2022/09/01 07:37:47;;;;;;;4.47;1.60;;;;;;;24.43;42.47;102431.75;4983235;28;20049;-61
2022/09/01 07:40:17;;;;;;;2.47;1.70;;;;;;;24.43;42.42;102432.56;4986213;28;20173;-60
2022/09/01 07:43:04;;;;;;;1.90;1.67;;;;;;;24.38;42.53;102434.91;4995331;28;20045;-61
2022/09/01 07:45:55;;;;;;;5.30;1.63;;;;;;;24.44;42.53;102431.56;4998071;28;20046;-61
2022/09/01 07:48:23;;;;;;;2.72;1.83;;;;;;;24.50;42.17;102422.88;4983502;28;20135;-60
2022/09/01 07:50:51;;;;;;;4.03;1.90;;;;;;;24.47;42.67;102425.06;4965378;28;20038;-60
2022/09/01 07:53:21;;;;;;;2.17;1.60;;;;;;;24.49;42.60;102423.88;4982846;28;20087;-60
2022/09/01 07:55:50;;;;;;;3.63;1.50;;;;;;;24.52;42.40;102420.88;5000713;28;20068;-60
2022/09/01 07:58:18;;;;;;;1.48;1.38;;;;;;;24.52;42.48;102430.69;4980289;28;20068;-60
2022/09/01 08:00:48;;;;;;;2.33;1.80;;;;;;;24.55;42.22;102431.19;4999522;28;20129;-61
2022/09/01 08:03:18;;;;;;;2.60;1.70;;;;;;;24.53;42.51;102435.03;4985123;28;20515;-60
2022/09/01 08:05:46;;;;;;;3.10;1.77;;;;;;;24.51;42.07;102437.03;4981855;28;20488;-60
2022/09/01 08:08:12;;;;;;;3.45;2.00;;;;;;;24.55;41.85;102436.50;4990898;28;20138;-60
2022/09/01 08:10:39;;;;;;;3.17;1.95;;;;;;;24.52;41.70;102433.34;4997951;28;20676;-60
2022/09/01 08:13:07;;;;;;;2.05;1.67;;;;;;;24.48;41.42;102432.88;4979453;28;21696;-61
2022/09/01 08:15:32;;;;;;;2.45;1.73;;;;;;;24.45;41.33;102429.75;4972657;28;20461;-60
2022/09/01 08:17:58;;;;;;;4.65;2.03;;;;;;;24.37;41.23;102439.38;5000430;28;20065;-61
2022/09/01 08:20:27;;;;;;;4.03;2.05;;;;;;;24.38;41.21;102433.06;4992186;28;20042;-61
2022/09/01 08:23:17;;;;;;;2.35;2.00;;;;;;;24.36;40.88;102437.72;4974334;28;20485;-60
2022/09/01 08:25:46;;;;;;;3.25;2.00;;;;;;;24.38;41.13;102429.56;4994100;28;20034;-61
2022/09/01 08:28:13;;;;;;;3.58;2.22;;;;;;;24.47;40.69;102431.22;4976325;28;20042;-61
2022/09/01 08:30:44;;;;;;;3.80;1.83;;;;;;;24.42;40.92;102436.25;4966396;28;20038;-61
2022/09/01 08:33:10;;;;;;;2.65;2.30;;;;;;;24.37;40.75;102430.56;4978649;28;21084;-61
2022/09/01 08:35:43;;;;;;;6.50;2.30;;;;;;;24.47;40.73;102433.06;4994480;28;20626;-60
2022/09/01 08:38:09;;;;;;;2.88;1.90;;;;;;;24.40;41.09;102430.22;4950877;28;20161;-60
2022/09/01 08:40:35;;;;;;;8.30;2.20;;;;;;;24.37;41.20;102434.06;4977567;28;20053;-60
2022/09/01 08:43:15;;;;;;;3.85;2.20;;;;;;;24.39;40.98;102428.56;4976492;28;20026;-60
2022/09/01 08:45:53;;;;;;;4.00;2.58;;;;;;;24.34;41.29;102439.75;4994412;28;20034;-60
2022/09/01 08:48:47;;;;;;;3.92;2.03;;;;;;;24.31;41.39;102437.44;4979412;28;20077;-61
2022/09/01 08:51:38;;;;;;;4.15;2.20;;;;;;;24.37;40.89;102438.56;4975945;28;20053;-60
2022/09/01 08:54:25;;;;;;;6.32;2.28;;;;;;;24.36;41.16;102432.41;4979965;28;20034;-60
2022/09/01 08:56:59;;;;;;;5.18;2.22;;;;;;;24.35;41.28;102438.75;4977655;28;20549;-61
2022/09/01 08:59:45;;;;;;;5.05;2.38;;;;;;;24.33;41.27;102437.25;4978795;28;20153;-61
2022/09/01 09:02:23;;;;;;;4.40;2.05;;;;;;;24.33;41.27;102432.75;4980107;28;20053;-61
2022/09/01 09:04:55;;;;;;;3.15;2.00;;;;;;;24.30;41.37;102438.44;4982113;28;20041;-61
2022/09/01 09:07:46;;;;;;;4.15;2.00;;;;;;;24.31;41.23;102425.94;4979792;28;20046;-61
2022/09/01 09:10:20;;;;;;;5.80;2.00;;;;;;;24.31;41.34;102420.63;4981806;28;20156;-61
2022/09/01 09:12:57;;;;;;;4.50;2.03;;;;;;;24.31;41.28;102417.97;4980290;28;20038;-61
2022/09/01 09:15:36;;;;;;;4.70;2.70;;;;;;;24.33;41.15;102424.78;4979621;28;20469;-61
2022/09/01 09:18:15;;;;;;;;;;;;;;;24.36;40.45;102419.09;4981572;28;20046;-61
2022/09/01 09:20:41;;;;;;;8.30;2.10;;;;;;;24.31;40.38;102407.31;4987190;28;19921;-61
2022/09/01 09:23:28;;;;;;;5.05;2.15;;;;;;;24.32;40.65;102399.16;5001150;28;20101;-61
2022/09/01 09:25:54;;;;;;;4.28;1.70;;;;;;;24.34;40.51;102413.13;4999844;28;20030;-61
2022/09/01 09:28:20;;;;;;;3.47;1.90;;;;;;;24.32;40.07;102417.78;4997143;28;20029;-61
2022/09/01 09:30:45;;;;;;;3.50;1.90;;;;;;;24.32;39.87;102408.97;4999670;28;20058;-61
2022/09/01 09:33:32;;;;;;;3.13;1.83;;;;;;;24.36;39.71;102410.28;5007407;28;20131;-61
2022/09/01 09:36:17;;;;;;;6.97;1.67;;;;;;;24.26;39.67;102396.31;5002540;28;20034;-61
2022/09/01 09:38:43;;;;;;;3.53;2.08;;;;;;;24.27;39.94;102408.63;5002171;28;20036;-61
2022/09/01 09:41:12;;;;;;;4.20;2.00;;;;;;;24.31;39.84;102404.66;5001103;28;20412;-61
2022/09/01 09:43:45;;;;;;;3.83;1.90;;;;;;;24.27;39.87;102408.63;5000863;28;20627;-60
2022/09/01 09:46:27;;;;;;;3.13;1.83;;;;;;;24.27;40.11;102401.47;4992561;28;20064;-62
2022/09/01 09:49:23;;;;;;;2.42;1.65;;;;;;;24.32;40.18;102404.47;5001368;28;20115;-61
2022/09/01 09:52:08;;;;;;;2.25;1.60;;;;;;;24.32;40.12;102393.81;4977127;28;21324;-61
2022/09/01 09:54:35;;;;;;;3.20;1.70;;;;;;;24.31;40.49;102399.31;5000860;28;20108;-61
2022/09/01 09:57:07;;;;;;;2.40;1.55;;;;;;;24.32;40.78;102398.31;4996645;28;20117;-61
2022/09/01 09:59:37;;;;;;;1.80;1.40;;;;;;;24.32;40.55;102393.00;5001086;28;20029;-61
2022/09/01 10:02:37;;;;;;;3.58;2.03;;;;;;;24.31;40.73;102388.69;4983950;28;20041;-60
2022/09/01 10:05:23;;;;;;;1.90;1.67;;;;;;;24.32;40.90;102390.34;4958634;28;20057;-61
2022/09/01 10:07:49;;;;;;;2.53;1.80;;;;;;;24.30;40.94;102385.19;5001967;28;20387;-61
2022/09/01 10:10:47;;;;;;;2.35;1.63;;;;;;;24.35;40.83;102377.50;4998664;28;20034;-61
2022/09/01 10:13:23;;;;;;;1.83;1.50;;;;;;;24.37;40.78;102380.00;4997781;28;20483;-61
2022/09/01 10:15:52;;;;;;;2.80;1.70;;;;;;;24.37;40.89;102377.31;4999910;28;20538;-61
2022/09/01 10:18:22;;;;;;;2.17;1.77;;;;;;;24.34;41.30;102373.19;5001295;28;20038;-61
2022/09/01 10:21:15;;;;;;;2.63;1.50;;;;;;;24.30;41.31;102371.88;4993149;28;20710;-61
2022/09/01 10:23:42;;;;;;;2.67;1.67;;;;;;;24.32;41.20;102372.53;4995548;28;20104;-61
2022/09/01 10:26:25;;;;;;;1.55;1.40;;;;;;;24.30;41.38;102368.38;4995867;28;20061;-61
2022/09/01 10:29:05;;;;;;;2.25;1.58;;;;;;;24.32;41.27;102367.19;4997936;28;20041;-61
2022/09/01 10:31:30;;;;;;;2.20;1.33;;;;;;;24.34;41.42;102367.03;5002026;28;20061;-61
2022/09/01 10:33:59;;;;;;;2.38;1.42;;;;;;;24.30;41.38;102352.41;5002525;28;20123;-61
2022/09/01 10:36:25;;;;;;;1.80;1.58;;;;;;;24.32;41.29;102361.03;4984084;28;20037;-61
2022/09/01 10:38:51;;;;;;;2.30;1.60;;;;;;;24.28;41.30;102357.88;5004759;28;20034;-62
2022/09/01 10:41:41;;;;;;;1.67;1.50;;;;;;;24.29;41.13;102356.91;5002653;28;20669;-61
2022/09/01 10:44:18;;;;;;;2.70;1.60;;;;;;;24.24;41.25;102353.91;4998996;28;20040;-61
2022/09/01 10:46:45;;;;;;;2.30;1.75;;;;;;;24.25;41.31;102354.72;4995410;28;20579;-61
2022/09/01 10:49:20;;;;;;;2.33;1.40;;;;;;;24.25;41.21;102346.75;4993908;28;20446;-61
2022/09/01 10:51:46;;;;;;;2.50;1.35;;;;;;;24.33;41.05;102347.56;5000351;28;20686;-61
2022/09/01 10:54:38;;;;;;;1.75;1.42;;;;;;;24.30;40.98;102353.25;4974921;28;20046;-61
2022/09/01 10:57:10;;;;;;;2.47;1.45;;;;;;;24.33;40.83;102349.41;4970761;28;20132;-61
2022/09/01 10:59:36;;;;;;;1.92;1.70;;;;;;;24.32;40.65;102343.25;5000431;28;20044;-61
2022/09/01 11:02:11;;;;;;;2.40;1.80;;;;;;;24.36;41.13;102339.22;4997604;28;21201;-61
2022/09/01 11:04:38;;;;;;;3.42;1.80;;;;;;;24.34;40.50;102343.06;4983341;28;20056;-60
2022/09/01 11:07:24;;;;;;;3.88;1.70;;;;;;;24.40;39.46;102342.38;4994950;28;20041;-61
2022/09/01 11:10:09;;;;;;;2.67;1.52;;;;;;;24.32;39.33;102339.75;5002489;28;20137;-61
2022/09/01 11:12:58;;;;;;;3.38;1.52;;;;;;;24.36;39.06;102338.41;4998686;28;20117;-61
2022/09/01 11:15:41;;;;;;;1.70;1.52;;;;;;;24.38;39.15;102339.03;4998826;28;20442;-61
2022/09/01 11:18:25;;;;;;;2.97;1.80;;;;;;;24.40;39.44;102334.38;5000376;28;20517;-61
2022/09/01 11:20:51;;;;;;;2.45;1.70;;;;;;;24.34;39.18;102333.25;4976478;28;20061;-61
2022/09/01 11:23:32;;;;;;;2.55;1.52;;;;;;;24.39;39.16;102324.72;4999114;28;20492;-61
2022/09/01 11:26:19;;;;;;;2.30;1.67;;;;;;;24.41;39.01;102330.72;5001211;28;20112;-60
2022/09/01 11:28:46;;;;;;;4.00;1.77;;;;;;;24.55;38.93;102321.97;4999846;28;20066;-60
2022/09/01 11:31:25;;;;;;;3.30;1.58;;;;;;;24.51;38.47;102330.50;5001773;28;20056;-60
2022/09/01 11:34:03;;;;;;;4.38;1.90;;;;;;;24.48;38.68;102330.84;4985552;28;20034;-60
2022/09/01 11:36:36;;;;;;;2.58;1.80;;;;;;;24.52;38.21;102322.34;5000367;28;20053;-60
2022/09/01 11:39:25;;;;;;;2.22;1.60;;;;;;;24.50;37.84;102316.38;4998491;28;20029;-60
2022/09/01 11:41:56;;;;;;;4.65;1.90;;;;;;;24.48;38.14;102314.88;4993617;28;20116;-61
2022/09/01 11:44:27;;;;;;;2.97;1.77;;;;;;;24.54;38.14;102325.66;4999320;28;20049;-60
2022/09/01 11:47:00;;;;;;;4.85;1.90;;;;;;;24.49;38.19;102317.38;4996896;28;20084;-60
2022/09/01 11:49:32;;;;;;;3.58;1.60;;;;;;;24.40;37.58;102313.91;4993150;28;20030;-61
2022/09/01 11:51:59;;;;;;;3.15;1.80;;;;;;;24.45;37.86;102310.75;5000123;28;20519;-60
2022/09/01 11:54:27;;;;;;;6.10;1.60;;;;;;;24.48;38.05;102314.88;5000246;28;20042;-60
2022/09/01 11:56:52;;;;;;;2.97;1.75;;;;;;;24.39;38.35;102306.09;4999228;28;20113;-61